Villas de Lafayette, Puerto Rico
Current Conditions -  °F | °C
As of 3:56 AM on Thursday 29 Jan 2015 (Local Time) from TJSJ Reporting Station
Scattered Clouds Scattered Clouds  
Wind Chill: 75°   Ceiling: Unl
Heat Index: 75°   Visibility: 10mi
Dew Point: 71°   Wind: 0mph
Humidity: 87%   Direction: NA
Pressure: 29.96"   Gusts: NA
Location:  17.9678°N, 66.0617°W
Report Text: TJSJ 290756Z 00000KT 10SM SCT070 24/22 A2996 RMK AO2 SLP145 T02390217
Loading
Personal Weather Stations






























Interactive Weather Map New forecast layout! Learn more

10-Day Weather Forecast

Advertisements
Track Severe Weather on mobile